Time;durP1;ratioP1;P1;durP2;ratioP2;P2;SDS_P1;SDS_P2;PMS_P1;PMS_P2;Temp;Humidity;BMP_temperature;BMP_pressure;BME280_temperature;BME280_humidity;BME280_pressure;Samples;Min_cycle;Max_cycle;Signal;HPM_P1;HPM_P2
2023/03/06 00:01:04;;;;;;;;;30.00;24.00;;;;;2.31;76.44;98971.28;6307370;20;2500302;-45
2023/03/06 00:03:32;;;;;;;;;36.50;30.00;;;;;2.48;76.60;98970.63;6278576;20;2500464;-47
2023/03/06 00:06:00;;;;;;;;;36.00;29.00;;;;;2.47;76.59;98971.53;6275796;20;2500316;-45
2023/03/06 00:08:29;;;;;;;;;36.00;25.00;;;;;2.48;76.61;98970.63;6279606;20;2869028;-45
2023/03/06 00:10:58;;;;;;;;;29.50;26.00;;;;;2.36;76.45;98969.31;6279137;20;2500295;-50
2023/03/06 00:13:28;;;;;;;;;31.67;23.33;;;;;2.39;76.42;98966.53;6279889;20;3592954;-44
2023/03/06 00:15:59;;;;;;;;;28.00;23.00;;;;;2.32;76.77;98958.00;6282502;20;2500306;-49
2023/03/06 00:18:28;;;;;;;;;27.33;26.67;;;;;2.30;77.00;98959.84;6287365;20;3577434;-47
2023/03/06 00:20:56;;;;;;;;;26.00;19.50;;;;;2.32;76.77;98959.78;6288283;20;2826354;-46
2023/03/06 00:23:24;;;;;;;;;22.50;20.00;;;;;2.27;76.68;98962.59;6283694;20;2500297;-47
2023/03/06 00:25:52;;;;;;;;;23.50;20.00;;;;;2.31;76.32;98958.03;6287077;20;2829593;-45
2023/03/06 00:28:20;;;;;;;;;19.00;19.00;;;;;2.48;75.98;98962.69;6286905;20;2817980;-45
2023/03/06 00:30:49;;;;;;;;;23.00;21.67;;;;;2.52;75.54;98958.97;6286614;20;3566910;-44
2023/03/06 00:33:16;;;;;;;;;28.00;23.00;;;;;2.61;75.21;98958.59;6289980;20;2835667;-44
2023/03/06 00:35:44;;;;;;;;;26.00;20.00;;;;;2.44;75.33;98948.69;6287447;20;2825377;-44
2023/03/06 00:38:13;;;;;;;;;18.50;18.00;;;;;2.58;74.98;98946.34;6291044;20;2814874;-46
2023/03/06 00:40:40;;;;;;;;;31.00;22.00;;;;;2.62;74.67;98947.06;6285401;20;2846119;-47
2023/03/06 00:43:09;;;;;;;;;18.33;18.33;;;;;2.61;74.55;98946.22;6286730;20;3553390;-44
2023/03/06 00:45:37;;;;;;;;;20.00;19.00;;;;;2.52;75.17;98945.72;6316698;20;2826327;-48
2023/03/06 00:48:05;;;;;;;;;20.00;19.00;;;;;2.72;75.29;98940.47;6287554;20;2822236;-44
2023/03/06 00:50:34;;;;;;;;;25.00;20.00;;;;;2.61;74.95;98942.72;6283055;20;2833665;-44
2023/03/06 00:53:01;;;;;;;;;23.50;19.50;;;;;2.60;75.07;98939.16;6288065;20;2845072;-44
2023/03/06 00:55:32;;;;;;;;;24.00;19.00;;;;;2.53;75.39;98942.16;6285177;20;3567176;-44
2023/03/06 00:58:00;;;;;;;;;24.50;18.50;;;;;2.69;74.97;98942.41;6318492;20;2829479;-45
2023/03/06 01:00:27;;;;;;;;;23.00;19.00;;;;;2.72;74.57;98940.47;6285811;20;2827448;-47
2023/03/06 01:02:55;;;;;;;;;23.00;18.00;;;;;2.94;74.35;98937.75;6286676;20;2837755;-44
2023/03/06 01:05:24;;;;;;;;;18.00;16.00;;;;;2.80;74.08;98933.06;6284398;20;3566034;-45
2023/03/06 01:07:52;;;;;;;;;23.50;22.00;;;;;2.87;74.06;98931.03;6317453;20;2832610;-47
2023/03/06 01:10:21;;;;;;;;;22.00;20.00;;;;;2.86;74.14;98939.88;6283158;20;3560677;-46
2023/03/06 01:12:49;;;;;;;;;17.00;17.00;;;;;2.81;73.50;98937.41;6310475;20;2498274;-44
2023/03/06 01:15:17;;;;;;;;;18.00;16.33;;;;;2.79;73.52;98939.28;6285664;20;3555507;-45
2023/03/06 01:17:45;;;;;;;;;24.50;20.00;;;;;2.88;73.78;98942.47;6314602;20;2826381;-47
2023/03/06 01:20:16;;;;;;;;;27.33;19.67;;;;;2.83;73.29;98935.56;6281927;20;3571143;-46
2023/03/06 01:22:54;;;;;;;;;23.67;17.00;;;;;2.67;74.27;98931.84;6281159;20;3567128;-45
2023/03/06 01:25:24;;;;;;;;;19.00;17.33;;;;;2.69;74.40;98940.59;6314289;20;3566990;-45
2023/03/06 01:27:52;;;;;;;;;23.50;19.50;;;;;2.82;74.28;98933.00;6281158;20;2829484;-43
2023/03/06 01:30:21;;;;;;;;;28.50;18.00;;;;;2.76;75.25;98934.09;6282635;20;2839042;-44
2023/03/06 01:32:49;;;;;;;;;20.00;17.67;;;;;2.73;74.60;98928.94;6285901;20;3568032;-45
2023/03/06 01:35:18;;;;;;;;;20.50;18.00;;;;;2.62;75.45;98936.47;6317852;20;2826396;-47
2023/03/06 01:37:47;;;;;;;;;17.33;15.67;;;;;2.63;75.63;98930.22;6284006;20;3556638;-48
2023/03/06 01:40:15;;;;;;;;;24.33;18.00;;;;;2.67;75.95;98929.19;6316209;20;3569040;-48
2023/03/06 01:42:44;;;;;;;;;19.67;17.67;;;;;2.71;75.43;98930.78;6315309;20;3566048;-48
2023/03/06 01:45:14;;;;;;;;;25.00;20.33;;;;;2.83;75.93;98924.97;6284526;20;3562781;-45
2023/03/06 01:47:43;;;;;;;;;22.33;18.00;;;;;2.83;75.36;98924.97;6315256;20;3564868;-45
2023/03/06 01:50:12;;;;;;;;;20.67;16.67;;;;;2.60;76.13;98920.63;6281414;20;3549240;-46
2023/03/06 01:52:57;;;;;;;;;25.00;21.33;;;;;2.61;75.90;98909.13;6314880;20;3563112;-44
2023/03/06 01:55:33;;;;;;;;;26.00;21.00;;;;;2.71;75.66;98919.31;6313851;20;2836903;-43
2023/03/06 01:58:15;;;;;;;;;25.33;18.67;;;;;2.56;76.77;98907.59;6283640;20;3573185;-44
2023/03/06 02:00:45;;;;;;;;;19.33;18.33;;;;;2.66;76.60;98911.59;6313857;20;3554532;-46
2023/03/06 02:03:22;;;;;;;;;27.00;18.00;;;;;2.83;75.92;98911.72;6318054;20;2847225;-45
2023/03/06 02:05:51;;;;;;;;;25.33;20.67;;;;;2.78;76.10;98904.88;6283086;20;3579430;-49
2023/03/06 02:08:22;;;;;;;;;23.00;17.33;;;;;2.82;76.14;98906.50;6284644;20;3564856;-45
2023/03/06 02:11:18;;;;;;;;;21.00;19.67;;;;;2.89;76.03;98913.22;6309595;20;3555582;-45
2023/03/06 02:13:48;;;;;;;;;20.00;16.00;;;;;2.78;76.78;98910.19;6283892;20;2824221;-45
2023/03/06 02:16:24;;;;;;;;;25.67;18.00;;;;;2.64;77.21;98901.03;6284231;20;3564997;-44
2023/03/06 02:18:54;;;;;;;;;22.67;20.00;;;;;2.58;77.15;98903.06;6278991;20;3569143;-45
2023/03/06 02:21:40;;;;;;;;;21.00;19.00;;;;;2.68;77.26;98904.41;6312378;20;2834635;-46
2023/03/06 02:24:21;;;;;;;;;22.67;20.33;;;;;2.64;77.80;98903.69;6280479;20;3561717;-44
2023/03/06 02:26:52;;;;;;;;;21.67;18.67;;;;;2.72;77.30;98897.22;6285165;20;3556490;-44
2023/03/06 02:29:26;;;;;;;;;30.50;20.00;;;;;2.68;77.33;98904.41;6282234;20;2839872;-46
2023/03/06 02:31:55;;;;;;;;;24.00;21.50;;;;;2.40;78.58;98905.56;6283579;20;2831628;-48
2023/03/06 02:34:24;;;;;;;;;30.00;23.33;;;;;2.56;78.44;98905.78;6282913;20;3582632;-46
2023/03/06 02:37:04;;;;;;;;;24.00;24.00;;;;;2.46;78.73;98903.59;6285299;20;3575322;-46
2023/03/06 02:39:38;;;;;;;;;26.33;21.33;;;;;2.65;78.31;98901.88;6281716;20;3572212;-46
2023/03/06 02:42:19;;;;;;;;;27.33;17.67;;;;;2.71;78.30;98901.63;6279500;20;3564816;-45
2023/03/06 02:44:51;;;;;;;;;27.67;25.33;;;;;2.73;77.81;98901.56;6315649;20;3583587;-45
2023/03/06 02:47:19;;;;;;;;;26.00;23.00;;;;;2.73;77.65;98906.88;6283460;20;2832578;-49
2023/03/06 02:49:47;;;;;;;;;28.50;25.00;;;;;2.88;77.41;98905.38;6283124;20;2871109;-47
2023/03/06 02:52:15;;;;;;;;;25.50;23.00;;;;;2.67;78.09;98902.69;6281459;20;2500303;-44
2023/03/06 02:54:42;;;;;;;;;29.50;25.00;;;;;2.72;78.07;98900.72;6283789;20;2837979;-45
2023/03/06 02:57:11;;;;;;;;;24.00;19.00;;;;;2.67;78.00;98897.41;6283581;20;2823187;-48
2023/03/06 02:59:38;;;;;;;;;31.50;22.50;;;;;2.69;78.40;98889.38;6280503;20;2850319;-47
2023/03/06 03:02:06;;;;;;;;;25.00;21.00;;;;;2.58;78.29;98896.00;6281264;20;2500315;-49
2023/03/06 03:04:34;;;;;;;;;25.00;24.00;;;;;2.73;78.62;98899.78;6279733;20;2500272;-45
2023/03/06 03:07:03;;;;;;;;;22.33;18.67;;;;;2.59;78.59;98899.50;6282954;20;3564881;-46
2023/03/06 03:09:35;;;;;;;;;25.50;19.50;;;;;2.76;77.85;98899.63;6308558;20;2830477;-45
2023/03/06 03:12:06;;;;;;;;;27.00;24.50;;;;;2.73;77.73;98894.47;6277425;20;2847282;-45
2023/03/06 03:14:34;;;;;;;;;20.00;20.00;;;;;2.86;77.46;98898.31;6277514;20;2829491;-44
2023/03/06 03:17:03;;;;;;;;;32.00;29.00;;;;;2.86;77.25;98895.66;6277020;20;2500381;-48
2023/03/06 03:19:32;;;;;;;;;35.00;29.00;;;;;2.80;77.27;98895.94;6279276;20;2853414;-48
2023/03/06 03:22:00;;;;;;;;;29.50;24.00;;;;;2.78;77.40;98897.78;6274781;20;2500353;-47
2023/03/06 03:24:29;;;;;;;;;30.33;26.00;;;;;2.96;77.17;98892.63;6278760;20;3582666;-45
2023/03/06 03:26:58;;;;;;;;;26.33;24.67;;;;;2.78;77.65;98884.53;6283216;20;3565872;-45
2023/03/06 03:29:26;;;;;;;;;30.00;27.50;;;;;2.91;77.16;98887.53;6282737;20;2852311;-45
2023/03/06 03:31:54;;;;;;;;;27.00;25.00;;;;;2.99;76.57;98896.00;6281450;20;2500300;-47
2023/03/06 03:34:22;;;;;;;;;28.00;22.50;;;;;2.89;76.92;98883.22;6279213;20;2500396;-47
2023/03/06 03:36:52;;;;;;;;;19.00;16.20;;;;;2.91;76.46;98894.63;6305988;20;2825654;-46
2023/03/06 03:39:20;;;;;;;;;25.67;20.67;;;;;2.94;76.57;98889.19;6278625;20;3569016;-45
2023/03/06 03:41:49;;;;;;;;;27.50;22.50;;;;;2.92;76.84;98883.06;6280038;20;3526286;-44
2023/03/06 03:44:17;;;;;;;;;24.00;20.00;;;;;2.83;76.49;98889.66;6281077;20;2831734;-49
2023/03/06 03:46:45;;;;;;;;;26.00;21.00;;;;;3.04;76.70;98890.50;6280622;20;2839969;-45
2023/03/06 03:49:13;;;;;;;;;18.50;18.50;;;;;3.00;76.17;98886.25;6282435;20;2645142;-47
2023/03/06 03:51:42;;;;;;;;;16.00;16.00;;;;;2.99;76.39;98889.84;6283303;20;3554415;-48
2023/03/06 03:54:10;;;;;;;;;21.50;20.00;;;;;3.01;76.04;98885.34;6314628;20;2496104;-44
2023/03/06 03:56:39;;;;;;;;;24.50;21.00;;;;;2.92;76.51;98888.38;6290567;20;2827503;-45
2023/03/06 03:59:08;;;;;;;;;24.50;21.50;;;;;3.13;75.97;98887.44;6284131;20;2500292;-45
2023/03/06 04:01:36;;;;;;;;;29.00;25.00;;;;;3.10;75.62;98884.94;6285122;20;2848183;-46
2023/03/06 04:04:06;;;;;;;;;27.50;22.00;;;;;3.15;75.61;98893.53;6285092;20;2500214;-44
2023/03/06 04:06:34;;;;;;;;;25.50;20.50;;;;;3.11;76.05;98880.47;6285506;20;2500312;-44
2023/03/06 04:09:03;;;;;;;;;32.00;25.00;;;;;3.00;76.22;98884.50;6284656;20;2858582;-46
2023/03/06 04:11:32;;;;;;;;;31.00;27.67;;;;;3.06;76.60;98891.31;6287316;20;3596095;-46
2023/03/06 04:13:59;;;;;;;;;27.50;24.00;;;;;3.24;76.18;98882.53;6286559;20;2494106;-48
2023/03/06 04:16:27;;;;;;;;;27.50;21.50;;;;;3.27;75.64;98884.19;6288591;20;2838850;-47
2023/03/06 04:18:56;;;;;;;;;27.00;21.67;;;;;3.18;75.99;98885.44;6287840;20;3580534;-45
2023/03/06 04:21:24;;;;;;;;;24.00;21.00;;;;;3.08;76.17;98885.00;6285615;20;2831571;-46
2023/03/06 04:23:52;;;;;;;;;22.00;22.00;;;;;3.05;76.53;98878.97;6283240;20;3564864;-46
2023/03/06 04:26:20;;;;;;;;;29.00;25.50;;;;;3.20;76.20;98888.03;6284292;20;2496104;-48
2023/03/06 04:28:48;;;;;;;;;29.50;25.00;;;;;3.07;76.44;98880.63;6285077;20;2500412;-45
2023/03/06 04:31:16;;;;;;;;;27.50;24.00;;;;;3.03;77.16;98880.84;6282903;20;2500784;-46
2023/03/06 04:33:44;;;;;;;;;28.50;23.50;;;;;3.08;76.86;98884.13;6289678;20;2833660;-46
2023/03/06 04:36:43;;;;;;;;;23.67;19.00;;;;;3.05;76.85;98881.63;6288826;20;3560792;-45
2023/03/06 04:39:13;;;;;;;;;34.00;26.50;;;;;3.07;76.54;98875.31;6283565;20;2859692;-48
2023/03/06 04:41:42;;;;;;;;;35.00;23.50;;;;;3.18;76.02;98893.41;6283928;20;2858609;-45
2023/03/06 04:44:10;;;;;;;;;34.00;28.00;;;;;3.13;76.29;98878.63;6285474;20;2839855;-47
2023/03/06 04:46:39;;;;;;;;;32.00;27.00;;;;;3.15;76.20;98877.63;6286783;20;2856618;-46
2023/03/06 04:49:07;;;;;;;;;31.00;27.50;;;;;3.27;75.92;98887.72;6283364;20;2500334;-50
2023/03/06 04:51:36;;;;;;;;;28.33;23.33;;;;;3.39;75.03;98885.41;6280985;20;3586821;-46
2023/03/06 04:54:05;;;;;;;;;28.33;24.67;;;;;3.27;75.45;98881.53;6281885;20;3578448;-45
2023/03/06 04:56:33;;;;;;;;;35.50;28.00;;;;;3.38;75.45;98887.22;6282035;20;2498268;-46
2023/03/06 04:59:03;;;;;;;;;32.00;25.50;;;;;3.24;75.63;98877.22;6287237;20;2857593;-46
2023/03/06 05:01:32;;;;;;;;;30.00;22.50;;;;;3.36;75.31;98875.81;6283598;20;2851328;-46
2023/03/06 05:04:01;;;;;;;;;35.50;29.50;;;;;3.12;76.25;98885.72;6284300;20;2851340;-47
2023/03/06 05:06:29;;;;;;;;;31.00;30.00;;;;;3.30;76.60;98876.94;6283901;20;2835846;-45
2023/03/06 05:08:58;;;;;;;;;34.00;27.50;;;;;3.17;75.62;98873.13;6282005;20;2861758;-47
2023/03/06 05:11:27;;;;;;;;;35.50;31.00;;;;;3.10;77.12;98882.28;6282166;20;2866905;-45
2023/03/06 05:13:56;;;;;;;;;42.33;31.67;;;;;3.07;77.15;98882.41;6285036;20;2877387;-45
2023/03/06 05:16:26;;;;;;;;;45.33;33.33;;;;;3.18;76.68;98881.94;6315113;20;2865993;-44
2023/03/06 05:18:55;;;;;;;;;35.50;31.00;;;;;3.20;76.37;98877.44;6317521;20;2848250;-46
2023/03/06 05:21:24;;;;;;;;;44.67;32.00;;;;;3.15;77.16;98885.59;6285288;20;2879510;-45
2023/03/06 05:23:52;;;;;;;;;27.00;27.00;;;;;3.17;77.96;98875.78;6315700;20;2564898;-47
2023/03/06 05:26:21;;;;;;;;;32.50;31.00;;;;;3.32;77.36;98883.97;6284519;20;2836846;-46
2023/03/06 05:28:49;;;;;;;;;31.00;25.00;;;;;3.16;77.21;98889.09;6286005;20;2856551;-47
2023/03/06 05:31:18;;;;;;;;;37.50;27.50;;;;;3.06;77.89;98883.34;6284345;20;2873192;-45
2023/03/06 05:33:47;;;;;;;;;27.00;26.00;;;;;3.19;78.12;98883.69;6284050;20;2835713;-49
2023/03/06 05:36:16;;;;;;;;;39.50;29.00;;;;;3.17;77.80;98886.38;6284751;20;2875376;-45
2023/03/06 05:38:44;;;;;;;;;34.00;33.00;;;;;3.18;77.85;98888.09;6280850;20;2857633;-45
2023/03/06 05:41:14;;;;;;;;;55.50;44.00;;;;;3.13;78.60;98884.78;6279775;20;2845189;-45
2023/03/06 05:43:43;;;;;;;;;42.67;33.00;;;;;3.30;77.87;98897.31;6279961;20;3626345;-51
2023/03/06 05:46:12;;;;;;;;;36.00;33.00;;;;;3.03;79.72;98888.81;6313658;20;2863840;-49
2023/03/06 05:48:41;;;;;;;;;30.00;23.50;;;;;3.06;79.72;98893.97;6279498;20;2848183;-49
2023/03/06 05:51:10;;;;;;;;;25.33;20.67;;;;;3.34;78.53;98893.56;6284198;20;3564835;-45
2023/03/06 05:53:40;;;;;;;;;38.00;24.33;;;;;3.13;78.52;98890.09;6284174;20;2871247;-47
2023/03/06 05:56:09;;;;;;;;;31.50;23.50;;;;;3.04;78.79;98896.66;6307734;20;2858604;-49
2023/03/06 05:58:38;;;;;;;;;27.00;26.00;;;;;3.10;79.44;98889.38;6284376;20;2854446;-45
2023/03/06 06:01:17;;;;;;;;;31.00;25.00;;;;;3.13;78.81;98895.41;6279824;20;2500345;-47
2023/03/06 06:03:47;;;;;;;;;33.00;25.50;;;;;2.89;79.92;98896.47;6286311;20;2858654;-47
2023/03/06 06:06:15;;;;;;;;;36.50;31.00;;;;;3.26;79.36;98904.53;6281083;20;2500485;-48
2023/03/06 06:08:44;;;;;;;;;36.50;29.50;;;;;3.25;79.42;98902.81;6284986;20;2861798;-46
2023/03/06 06:11:13;;;;;;;;;31.00;27.00;;;;;3.33;79.41;98896.31;6282162;20;2854485;-47
2023/03/06 06:13:43;;;;;;;;;48.67;41.67;;;;;3.15;79.70;98900.66;6281322;20;2875548;-46
2023/03/06 06:16:15;;;;;;;;;46.33;41.00;;;;;3.47;79.59;98904.50;6312656;20;2875270;-45
2023/03/06 06:18:45;;;;;;;;;45.33;37.67;;;;;3.41;79.31;98897.69;6316549;20;2865063;-45
2023/03/06 06:21:15;;;;;;;;;37.00;33.00;;;;;3.43;79.11;98908.25;6313967;20;2867097;-45
2023/03/06 06:23:45;;;;;;;;;38.67;30.00;;;;;3.40;79.12;98908.38;6313236;20;2872302;-44
2023/03/06 06:26:13;;;;;;;;;30.00;25.00;;;;;3.57;78.55;98905.81;6315555;20;2849231;-46
2023/03/06 06:28:41;;;;;;;;;31.00;24.50;;;;;3.54;78.61;98913.91;6280172;20;2500305;-48
2023/03/06 06:31:11;;;;;;;;;39.50;36.00;;;;;3.60;78.70;98915.44;6278627;20;2500294;-45
2023/03/06 06:33:41;;;;;;;;;33.00;29.00;;;;;3.63;78.39;98909.97;6281275;20;2834653;-45
2023/03/06 06:36:20;;;;;;;;;39.00;31.50;;;;;3.56;78.90;98906.75;6283616;20;2869032;-48
2023/03/06 06:38:51;;;;;;;;;39.33;34.67;;;;;3.30;79.22;98898.16;6283680;20;3613805;-47
2023/03/06 06:41:19;;;;;;;;;37.00;33.00;;;;;3.58;78.91;98911.97;6314644;20;2857688;-47
2023/03/06 06:44:14;;;;;;;;;38.00;32.50;;;;;3.66;78.87;98921.34;6284449;20;2852464;-46
2023/03/06 06:46:45;;;;;;;;;38.00;30.00;;;;;3.56;78.95;98916.53;6280644;20;2864972;-50
2023/03/06 06:49:34;;;;;;;;;36.50;29.50;;;;;3.72;78.75;98915.72;6282080;20;2848294;-45
2023/03/06 06:52:06;;;;;;;;;55.00;43.67;;;;;3.66;78.82;98917.78;6281809;20;2869193;-48
2023/03/06 06:54:35;;;;;;;;;54.33;40.67;;;;;3.80;79.42;98918.03;6313137;20;2875376;-47
2023/03/06 06:57:03;;;;;;;;;45.50;40.00;;;;;3.81;78.70;98913.59;6311781;20;2495193;-48
2023/03/06 06:59:31;;;;;;;;;57.50;44.50;;;;;3.68;79.20;98919.44;6280279;20;2500443;-46
2023/03/06 07:02:00;;;;;;;;;54.33;40.33;;;;;3.70;79.08;98909.63;6284244;20;2872155;-49
2023/03/06 07:04:29;;;;;;;;;64.00;48.00;;;;;3.86;77.95;98924.84;6314232;20;2866993;-46
2023/03/06 07:06:59;;;;;;;;;55.50;46.00;;;;;3.95;77.77;98921.78;6283188;20;2860716;-47
2023/03/06 07:09:29;;;;;;;;;54.00;43.00;;;;;3.99;77.64;98918.03;6280202;20;2487848;-49
2023/03/06 07:11:58;;;;;;;;;52.50;43.00;;;;;3.96;77.11;98923.50;6282159;20;2861842;-46
2023/03/06 07:14:27;;;;;;;;;57.00;44.50;;;;;3.87;77.21;98932.75;6281399;20;2854541;-48
2023/03/06 07:16:57;;;;;;;;;44.00;36.00;;;;;3.89;77.93;98924.69;6283242;20;2881647;-49
2023/03/06 07:19:26;;;;;;;;;48.00;39.67;;;;;3.87;77.69;98918.59;6315243;20;3622108;-48
2023/03/06 07:21:56;;;;;;;;;44.33;38.33;;;;;3.96;78.47;98924.34;6315399;20;2870208;-47
2023/03/06 07:24:26;;;;;;;;;43.33;35.67;;;;;4.21;77.33;98917.00;6311749;20;3613836;-47
2023/03/06 07:26:54;;;;;;;;;56.50;44.00;;;;;4.41;76.25;98914.25;6317086;20;2500395;-46
2023/03/06 07:29:24;;;;;;;;;57.00;41.00;;;;;4.24;75.41;98920.41;6288226;20;2873534;-51
2023/03/06 07:31:53;;;;;;;;;52.33;41.33;;;;;4.45;75.75;98926.47;6316759;20;2869139;-50
2023/03/06 07:34:22;;;;;;;;;37.00;36.00;;;;;4.30;75.40;98929.88;6319696;20;2836955;-49
2023/03/06 07:36:51;;;;;;;;;60.00;45.50;;;;;4.07;76.17;98934.47;6285707;20;2872150;-51
2023/03/06 07:39:20;;;;;;;;;45.00;37.67;;;;;4.36;75.75;98940.19;6287666;20;2864980;-51
2023/03/06 07:41:51;;;;;;;;;39.33;34.00;;;;;3.99;76.66;98943.72;6316828;20;2858718;-46
2023/03/06 07:44:21;;;;;;;;;38.33;33.33;;;;;4.18;76.74;98944.56;6319403;20;2861858;-48
2023/03/06 07:46:50;;;;;;;;;38.33;34.00;;;;;4.10;76.81;98942.28;6317335;20;2860802;-50
2023/03/06 07:49:20;;;;;;;;;51.33;39.33;;;;;4.32;76.08;98935.97;6319725;20;2862779;-46
2023/03/06 07:51:49;;;;;;;;;38.67;32.67;;;;;4.30;76.37;98945.81;6318013;20;2859667;-49
2023/03/06 07:54:18;;;;;;;;;34.67;32.00;;;;;4.52;75.44;98948.28;6319567;20;2860758;-47
2023/03/06 07:56:52;;;;;;;;;41.00;36.00;;;;;4.45;75.91;98958.38;6318103;20;3615961;-46
2023/03/06 07:59:21;;;;;;;;;39.67;33.67;;;;;4.28;77.09;98951.19;6319999;20;2866969;-49
2023/03/06 08:01:54;;;;;;;;;40.33;36.00;;;;;4.32;77.13;98949.25;6318522;20;3613884;-49
2023/03/06 08:04:24;;;;;;;;;44.33;37.67;;;;;4.34;76.75;98945.56;6315315;20;2859994;-48
2023/03/06 08:06:56;;;;;;;;;41.33;35.33;;;;;4.64;75.70;98953.00;6317533;20;2858665;-48
2023/03/06 08:09:26;;;;;;;;;41.00;31.33;;;;;4.37;76.83;98941.91;6317004;20;3615901;-47
2023/03/06 08:11:55;;;;;;;;;43.33;34.67;;;;;4.89;75.04;98942.00;6316049;20;3626436;-49
2023/03/06 08:14:25;;;;;;;;;40.33;32.33;;;;;4.91;75.23;98942.78;6317808;20;3629433;-46
2023/03/06 08:16:56;;;;;;;;;41.67;34.00;;;;;4.69;75.97;98940.34;6315606;20;3619034;-46
2023/03/06 08:19:23;;;;;;;;;30.50;27.50;;;;;4.59;76.58;98942.59;6313474;20;2500332;-48
2023/03/06 08:21:53;;;;;;;;;39.00;30.00;;;;;4.86;75.52;98951.94;6286056;20;3616966;-45
2023/03/06 08:24:21;;;;;;;;;33.50;31.50;;;;;4.35;77.36;98952.63;6314649;20;2856518;-47
2023/03/06 08:26:50;;;;;;;;;32.00;29.50;;;;;4.88;76.18;98958.03;6284010;20;2858673;-48
2023/03/06 08:29:20;;;;;;;;;34.33;25.33;;;;;4.97;75.76;98950.44;6285578;20;2862805;-47
2023/03/06 08:31:50;;;;;;;;;36.00;31.00;;;;;4.89;75.59;98955.28;6315925;20;2863834;-47
2023/03/06 08:34:23;;;;;;;;;32.50;27.00;;;;;4.85;74.26;98961.72;6316904;20;2846111;-51
2023/03/06 08:36:52;;;;;;;;;32.00;26.00;;;;;4.76;74.64;98956.84;6282729;20;2839887;-47
2023/03/06 08:39:22;;;;;;;;;38.00;29.00;;;;;4.26;76.32;98955.69;6286514;20;2868128;-48
2023/03/06 08:41:52;;;;;;;;;48.33;36.33;;;;;4.51;76.97;98951.88;6283907;20;3624301;-47
2023/03/06 08:44:21;;;;;;;;;37.33;29.00;;;;;4.85;76.36;98956.41;6312380;20;2872152;-47
2023/03/06 08:46:49;;;;;;;;;33.00;20.50;;;;;5.22;74.05;98959.84;6315448;20;2864867;-48
2023/03/06 08:49:18;;;;;;;;;33.00;27.50;;;;;5.49;73.04;98954.88;6281619;20;2855528;-49
2023/03/06 08:51:46;;;;;;;;;30.50;26.00;;;;;5.84;72.38;98953.00;6280711;20;2845095;-47
2023/03/06 08:54:15;;;;;;;;;36.00;25.00;;;;;5.81;70.43;98952.31;6284409;20;2865914;-47
2023/03/06 08:56:44;;;;;;;;;29.50;25.50;;;;;5.50;70.74;98954.81;6281782;20;2854511;-49
2023/03/06 08:59:13;;;;;;;;;27.00;23.50;;;;;5.48;72.29;98959.34;6282553;20;2848201;-51
2023/03/06 09:01:41;;;;;;;;;26.00;26.00;;;;;5.97;69.52;98957.69;6279993;20;2500351;-49
2023/03/06 09:04:10;;;;;;;;;31.00;25.00;;;;;5.86;69.86;98961.78;6284263;20;2864943;-49
2023/03/06 09:06:41;;;;;;;;;34.50;28.00;;;;;5.81;70.60;98962.97;6313521;20;2850317;-47
2023/03/06 09:09:11;;;;;;;;;35.50;28.00;;;;;6.04;70.22;98959.09;6285040;20;2856598;-48
2023/03/06 09:11:40;;;;;;;;;32.50;24.50;;;;;5.88;70.92;98964.38;6278242;20;2852446;-50
2023/03/06 09:14:09;;;;;;;;;35.50;30.00;;;;;6.24;69.26;98961.53;6285261;20;2848382;-48
2023/03/06 09:16:38;;;;;;;;;32.50;28.00;;;;;5.91;69.74;98961.53;6284973;20;2856592;-50
2023/03/06 09:19:06;;;;;;;;;36.00;29.50;;;;;6.02;69.40;98955.66;6279023;20;2500388;-49
2023/03/06 09:21:33;;;;;;;;;27.00;23.00;;;;;5.67;70.19;98951.25;6280613;20;2500402;-47
2023/03/06 09:24:05;;;;;;;;;31.88;28.00;;;;;5.91;69.37;98959.72;6170366;20;3592957;-49
2023/03/06 09:26:35;;;;;;;;;34.00;23.67;;;;;6.69;67.79;98951.88;6286133;20;2874258;-49
2023/03/06 09:29:15;;;;;;;;;27.50;21.00;;;;;6.91;67.67;98945.28;6316127;20;2844035;-48
2023/03/06 09:31:45;;;;;;;;;28.00;24.00;;;;;6.57;66.09;98955.22;6281077;20;2844032;-52
2023/03/06 09:34:14;;;;;;;;;26.50;22.50;;;;;6.58;66.19;98944.50;6285331;20;2842979;-50
2023/03/06 09:36:43;;;;;;;;;22.00;17.00;;;;;6.80;65.50;98937.91;6283419;20;3547130;-50
2023/03/06 09:39:23;;;;;;;;;30.00;23.00;;;;;7.49;62.44;98944.47;6312066;20;2500372;-49
2023/03/06 09:41:56;;;;;;;;;112.00;103.33;;;;;7.15;62.54;98926.97;6281263;20;3715891;-51
2023/03/06 09:44:32;;;;;;;;;34.00;31.00;;;;;7.38;62.04;98920.25;6281048;20;2861749;-48
2023/03/06 09:47:37;;;;;;;;;29.50;27.50;;;;;7.61;61.89;98914.34;6281165;20;2850297;-48
2023/03/06 09:50:27;;;;;;;;;29.50;23.00;;;;;7.54;62.41;98929.03;6283366;20;2838965;-51
2023/03/06 09:53:31;;;;;;;;;23.00;20.00;;;;;7.75;59.18;98912.63;6282994;20;2831873;-51
2023/03/06 09:56:32;;;;;;;;;25.00;22.50;;;;;7.70;59.97;98918.25;6284188;20;2846237;-52
2023/03/06 09:59:23;;;;;;;;;34.67;33.33;;;;;7.51;60.77;98918.53;6282068;20;3612856;-50
2023/03/06 10:02:32;;;;;;;;;27.00;25.50;;;;;7.88;59.19;98906.41;6314343;20;2838912;-49
2023/03/06 10:05:08;;;;;;;;;25.00;20.00;;;;;8.29;57.38;98907.38;6282172;20;2836813;-51
2023/03/06 10:08:35;;;;;;;;;38.00;25.00;;;;;7.63;59.31;98901.72;6282774;20;3631537;-52
2023/03/06 10:11:09;;;;;;;;;42.33;37.33;;;;;8.05;59.12;98908.00;6313121;20;3595048;-49
2023/03/06 10:14:17;;;;;;;;;25.00;22.00;;;;;7.75;59.40;98902.78;6278051;20;2848246;-50
2023/03/06 10:16:46;;;;;;;;;30.00;25.50;;;;;8.43;56.05;98909.22;6280943;20;2847216;-49
2023/03/06 10:19:19;;;;;;;;;29.00;25.00;;;;;8.60;56.93;98902.75;6281519;20;2840888;-51
2023/03/06 10:22:20;;;;;;;;;71.00;56.00;;;;;8.66;55.68;98902.31;6282725;20;3633607;-47
2023/03/06 10:25:09;;;;;;;;;33.50;30.00;;;;;8.51;57.63;98905.06;6311723;20;2851356;-50
2023/03/06 10:27:56;;;;;;;;;34.50;29.50;;;;;9.01;54.15;98906.19;6281715;20;2861772;-47
2023/03/06 10:30:47;;;;;;;;;30.00;24.00;;;;;8.76;53.55;98898.94;6278662;20;2853434;-48
2023/03/06 10:33:46;;;;;;;;;30.50;22.00;;;;;8.26;54.90;98894.22;6278459;20;2861693;-50
2023/03/06 10:36:20;;;;;;;;;28.00;25.00;;;;;8.53;55.52;98891.56;6281478;20;2856543;-48
2023/03/06 10:38:49;;;;;;;;;32.50;28.50;;;;;9.53;52.83;98892.84;6284688;20;2844173;-50
2023/03/06 10:41:30;;;;;;;;;31.50;28.00;;;;;8.86;54.17;98884.94;6281823;20;2852418;-47
2023/03/06 10:43:59;;;;;;;;;26.67;24.33;;;;;8.42;55.02;98878.06;6281755;20;2841973;-49
2023/03/06 10:46:41;;;;;;;;;27.67;27.67;;;;;8.36;55.33;98868.59;6315205;20;2844068;-49
2023/03/06 10:49:34;;;;;;;;;30.33;25.00;;;;;8.57;54.23;98864.53;6311694;20;2853539;-50
2023/03/06 10:52:09;;;;;;;;;29.00;25.50;;;;;9.08;53.22;98861.09;6310514;20;2844059;-47
2023/03/06 10:54:42;;;;;;;;;33.50;26.50;;;;;9.12;53.29;98867.13;6281363;20;2849333;-49
2023/03/06 10:57:30;;;;;;;;;31.00;25.33;;;;;8.96;52.80;98861.94;6279088;20;2854446;-52
2023/03/06 11:00:07;;;;;;;;;33.00;29.00;;;;;8.69;53.81;98851.28;6313133;20;2849234;-49
2023/03/06 11:02:39;;;;;;;;;32.00;27.50;;;;;8.63;54.01;98855.22;6280803;20;2835724;-51
2023/03/06 11:05:20;;;;;;;;;34.50;28.50;;;;;9.33;52.99;98854.06;6280642;20;2851398;-48
2023/03/06 11:07:59;;;;;;;;;26.50;25.50;;;;;8.56;54.50;98860.16;6283669;20;2839897;-47
2023/03/06 11:10:30;;;;;;;;;34.50;29.00;;;;;8.36;54.47;98852.53;6280984;20;2853433;-51
2023/03/06 11:13:22;;;;;;;;;34.67;26.00;;;;;8.33;54.91;98844.72;6281850;20;2861941;-47
2023/03/06 11:16:29;;;;;;;;;27.50;23.50;;;;;8.24;54.61;98831.94;6309218;20;2852350;-46
2023/03/06 11:19:04;;;;;;;;;27.00;24.00;;;;;8.06;55.28;98834.88;6277565;20;2500390;-52
2023/03/06 11:21:39;;;;;;;;;32.67;24.00;;;;;7.90;55.35;98828.81;6274945;20;2859654;-49
2023/03/06 11:24:19;;;;;;;;;29.00;24.00;;;;;8.28;54.59;98822.78;6308577;20;2848261;-52
2023/03/06 11:27:00;;;;;;;;;29.00;24.50;;;;;8.35;54.64;98818.75;6277901;20;2850365;-49
2023/03/06 11:29:44;;;;;;;;;24.50;17.00;;;;;8.24;55.47;98815.91;6280238;20;2838814;-48
2023/03/06 11:32:23;;;;;;;;;28.50;26.00;;;;;7.98;57.63;98799.78;6279779;20;2835824;-48